Time,TemperatureF,DewpointF,PressureIn,WindDirection,WindDirectionDegrees,WindSpeedMPH,WindSpeedGustMPH,Humidity,HourlyPrecipIn,Conditions,Clouds,dailyrainin,SoftwareType,DateUTC
2013-01-15 00:00:00,27.9,20.7,30.39,WSW,258,0.0,1.0,74,0.00,,,0.00,VWS V14.01,2013-01-15 08:00:00,
2013-01-15 00:14:00,28.0,20.5,30.40,SSE,168,0.0,1.0,73,0.00,,,0.00,VWS V14.01,2013-01-15 08:14:00,
2013-01-15 00:29:00,27.5,20.3,30.40,SW,215,0.0,1.0,74,0.00,,,0.00,VWS V14.01,2013-01-15 08:29:00,
2013-01-15 00:44:00,27.6,20.4,30.41,SE,126,0.0,1.0,74,0.00,,,0.00,VWS V14.01,2013-01-15 08:44:00,
2013-01-15 00:59:00,27.4,20.5,30.41,East,85,0.0,1.0,75,0.00,,,0.00,VWS V14.01,2013-01-15 08:59:00,
2013-01-15 01:14:00,27.9,20.7,30.42,East,88,0.0,1.0,74,0.00,,,0.00,VWS V14.01,2013-01-15 09:14:00,
2013-01-15 01:29:00,27.6,20.4,30.42,ESE,105,0.0,1.0,74,0.00,,,0.00,VWS V14.01,2013-01-15 09:29:00,
2013-01-15 01:44:00,26.9,19.7,30.42,SE,142,1.0,2.0,74,0.00,,,0.00,VWS V14.01,2013-01-15 09:44:00,
2013-01-15 01:59:00,26.7,19.9,30.43,West,272,0.0,2.0,75,0.00,,,0.00,VWS V14.01,2013-01-15 09:59:00,
2013-01-15 02:14:00,27.0,20.1,30.44,ENE,71,0.0,2.0,75,0.00,,,0.00,VWS V14.01,2013-01-15 10:14:00,
2013-01-15 02:29:00,27.3,20.1,30.43,ESE,112,3.0,5.0,74,0.00,,,0.00,VWS V14.01,2013-01-15 10:29:00,
2013-01-15 02:44:00,27.6,19.8,30.43,SE,132,2.0,5.0,72,0.00,,,0.00,VWS V14.01,2013-01-15 10:44:00,
2013-01-15 02:59:00,27.1,19.6,30.43,ESE,113,0.0,3.0,73,0.00,,,0.00,VWS V14.01,2013-01-15 10:59:00,
2013-01-15 03:14:00,27.7,19.9,30.44,SE,139,0.0,2.0,72,0.00,,,0.00,VWS V14.01,2013-01-15 11:14:00,
2013-01-15 03:30:00,26.8,19.3,30.44,SSW,198,0.0,0.0,73,0.00,,,0.00,VWS V14.01,2013-01-15 11:30:00,
2013-01-15 03:44:00,27.1,19.9,30.44,SW,225,0.0,0.0,74,0.00,,,0.00,VWS V14.01,2013-01-15 11:44:00,
2013-01-15 03:59:00,27.5,20.3,30.44,East,94,0.0,2.0,74,0.00,,,0.00,VWS V14.01,2013-01-15 11:59:00,
2013-01-15 04:14:00,26.6,20.1,30.43,East,92,0.0,2.0,76,0.00,,,0.00,VWS V14.01,2013-01-15 12:14:00,
2013-01-15 04:29:00,26.2,19.7,30.43,ENE,76,0.0,4.0,76,0.00,,,0.00,VWS V14.01,2013-01-15 12:29:00,
2013-01-15 04:44:00,25.9,19.7,30.43,WNW,289,0.0,2.0,77,0.00,,,0.00,VWS V14.01,2013-01-15 12:44:00,
2013-01-15 04:59:00,26.1,20.2,30.43,WNW,289,0.0,0.0,78,0.00,,,0.00,VWS V14.01,2013-01-15 12:59:00,
2013-01-15 05:14:00,26.1,19.9,30.44,ESE,116,0.0,0.0,77,0.00,,,0.00,VWS V14.01,2013-01-15 13:14:00,
2013-01-15 05:29:00,25.7,19.8,30.44,ESE,119,0.0,1.0,78,0.00,,,0.00,VWS V14.01,2013-01-15 13:29:00,
2013-01-15 05:44:00,25.9,20.3,30.44,SE,128,0.0,0.0,79,0.00,,,0.00,VWS V14.01,2013-01-15 13:44:00,
2013-01-15 05:59:00,25.6,20.0,30.44,SE,128,0.0,0.0,79,0.00,,,0.00,VWS V14.01,2013-01-15 13:59:00,
2013-01-15 06:14:00,25.0,19.4,30.43,ESE,119,0.0,3.0,79,0.00,,,0.00,VWS V14.01,2013-01-15 14:14:00,
2013-01-15 06:29:00,24.6,19.6,30.43,SE,125,5.0,5.0,81,0.00,,,0.00,VWS V14.01,2013-01-15 14:29:00,
2013-01-15 06:44:00,25.3,19.4,30.43,ESE,113,2.0,5.0,78,0.00,,,0.00,VWS V14.01,2013-01-15 14:44:00,
2013-01-15 06:59:00,25.5,19.6,30.43,ESE,104,2.0,3.0,78,0.00,,,0.00,VWS V14.01,2013-01-15 14:59:00,
2013-01-15 07:14:00,25.7,19.5,30.44,SSE,153,0.0,2.0,77,0.00,,,0.00,VWS V14.01,2013-01-15 15:14:00,
2013-01-15 07:29:00,24.7,19.4,30.44,WSW,244,0.0,1.0,80,0.00,,,0.00,VWS V14.01,2013-01-15 15:29:00,
2013-01-15 07:44:00,27.7,21.1,30.45,WSW,243,0.0,0.0,76,0.00,,,0.00,VWS V14.01,2013-01-15 15:44:00,
2013-01-15 07:59:00,29.0,22.1,30.46,ENE,78,0.0,1.0,75,0.00,,,0.00,VWS V14.01,2013-01-15 15:59:00,
2013-01-15 08:14:00,31.0,23.0,30.46,East,80,0.0,2.0,72,0.00,,,0.00,VWS V14.01,2013-01-15 16:14:00,
2013-01-15 08:29:00,31.2,22.2,30.47,East,80,1.0,2.0,69,0.00,,,0.00,VWS V14.01,2013-01-15 16:29:00,
2013-01-15 08:44:00,32.5,23.5,30.48,SSE,160,0.0,1.0,69,0.00,,,0.00,VWS V14.01,2013-01-15 16:44:00,
2013-01-15 08:59:00,33.5,23.4,30.48,West,259,1.0,2.0,66,0.00,,,0.00,VWS V14.01,2013-01-15 16:59:00,
2013-01-15 09:14:00,34.7,23.4,30.48,West,272,0.0,2.0,63,0.00,,,0.00,VWS V14.01,2013-01-15 17:14:00,
2013-01-15 09:29:00,37.0,22.8,30.48,WSW,258,2.0,2.0,56,0.00,,,0.00,VWS V14.01,2013-01-15 17:29:00,
2013-01-15 09:44:00,38.5,23.3,30.49,NW,323,2.0,3.0,54,0.00,,,0.00,VWS V14.01,2013-01-15 17:44:00,
2013-01-15 09:59:00,38.7,23.1,30.49,West,259,0.0,4.0,53,0.00,,,0.00,VWS V14.01,2013-01-15 17:59:00,
2013-01-15 10:14:00,40.9,24.2,30.49,ENE,70,2.0,4.0,51,0.00,,,0.00,VWS V14.01,2013-01-15 18:14:00,
2013-01-15 10:29:00,42.8,24.5,30.49,West,274,2.0,3.0,48,0.00,,,0.00,VWS V14.01,2013-01-15 18:29:00,
2013-01-15 10:44:00,42.3,24.0,30.48,WNW,292,3.0,4.0,48,0.00,,,0.00,VWS V14.01,2013-01-15 18:44:00,
2013-01-15 10:59:00,42.5,25.2,30.48,West,261,1.0,6.0,50,0.00,,,0.00,VWS V14.01,2013-01-15 18:59:00,
2013-01-15 11:14:00,43.7,24.8,30.47,NNW,342,2.0,5.0,47,0.00,,,0.00,VWS V14.01,2013-01-15 19:14:00,
2013-01-15 11:29:00,44.8,23.7,30.46,West,269,2.0,5.0,43,0.00,,,0.00,VWS V14.01,2013-01-15 19:29:00,
2013-01-15 11:44:00,46.6,25.3,30.46,West,274,1.0,6.0,43,0.00,,,0.00,VWS V14.01,2013-01-15 19:44:00,
2013-01-15 11:59:00,47.9,23.5,30.45,WNW,286,2.0,4.0,38,0.00,,,0.00,VWS V14.01,2013-01-15 19:59:00,
2013-01-15 12:14:00,48.3,23.9,30.43,NW,323,3.0,4.0,38,0.00,,,0.00,VWS V14.01,2013-01-15 20:14:00,
2013-01-15 12:29:00,49.4,24.2,30.43,WSW,254,3.0,4.0,37,0.00,,,0.00,VWS V14.01,2013-01-15 20:29:00,
2013-01-15 12:44:00,49.1,24.0,30.42,WSW,244,3.0,4.0,37,0.00,,,0.00,VWS V14.01,2013-01-15 20:44:00,
2013-01-15 12:59:00,49.5,25.6,30.42,NW,304,3.0,6.0,39,0.00,,,0.00,VWS V14.01,2013-01-15 20:59:00,
2013-01-15 13:14:00,50.5,23.9,30.41,WNW,299,0.0,5.0,35,0.00,,,0.00,VWS V14.01,2013-01-15 21:14:00,
2013-01-15 13:29:00,50.7,24.7,30.41,NW,308,0.0,6.0,36,0.00,,,0.00,VWS V14.01,2013-01-15 21:29:00,
2013-01-15 13:44:00,50.9,24.9,30.40,WNW,287,2.0,5.0,36,0.00,,,0.00,VWS V14.01,2013-01-15 21:44:00,
2013-01-15 14:00:00,51.0,24.3,30.40,WNW,289,0.0,6.0,35,0.00,,,0.00,VWS V14.01,2013-01-15 22:00:00,
2013-01-15 14:14:00,51.7,25.0,30.40,WNW,293,1.0,6.0,35,0.00,,,0.00,VWS V14.01,2013-01-15 22:14:00,
2013-01-15 14:29:00,52.0,26.5,30.40,NNW,333,1.0,6.0,37,0.00,,,0.00,VWS V14.01,2013-01-15 22:29:00,
2013-01-15 14:44:00,52.8,27.9,30.40,WNW,290,1.0,5.0,38,0.00,,,0.00,VWS V14.01,2013-01-15 22:44:00,
2013-01-15 14:59:00,51.8,25.0,30.40,WNW,286,3.0,6.0,35,0.00,,,0.00,VWS V14.01,2013-01-15 22:59:00,
2013-01-15 15:14:00,52.0,25.9,30.41,WNW,296,3.0,6.0,36,0.00,,,0.00,VWS V14.01,2013-01-15 23:14:00,
2013-01-15 15:29:00,52.5,26.3,30.41,NNE,12,3.0,5.0,36,0.00,,,0.00,VWS V14.01,2013-01-15 23:29:00,
2013-01-15 15:44:00,52.9,26.0,30.40,NW,325,3.0,4.0,35,0.00,,,0.00,VWS V14.01,2013-01-15 23:44:00,
2013-01-15 15:59:00,51.7,25.6,30.40,West,281,1.0,5.0,36,0.00,,,0.00,VWS V14.01,2013-01-15 23:59:00,
2013-01-15 16:14:00,50.6,26.0,30.41,NW,311,0.0,4.0,38,0.00,,,0.00,VWS V14.01,2013-01-16 00:14:00,
2013-01-15 16:29:00,50.1,27.9,30.41,ENE,70,1.0,3.0,42,0.00,,,0.00,VWS V14.01,2013-01-16 00:29:00,
2013-01-15 16:44:00,48.9,27.4,30.41,ENE,74,0.0,5.0,43,0.00,,,0.00,VWS V14.01,2013-01-16 00:44:00,
2013-01-15 16:59:00,47.4,27.1,30.41,ENE,70,1.0,3.0,45,0.00,,,0.00,VWS V14.01,2013-01-16 00:59:00,
2013-01-15 17:14:00,45.9,26.8,30.41,ENE,64,2.0,7.0,47,0.00,,,0.00,VWS V14.01,2013-01-16 01:14:00,
2013-01-15 17:29:00,44.7,26.7,30.41,ENE,65,3.0,4.0,49,0.00,,,0.00,VWS V14.01,2013-01-16 01:29:00,
2013-01-15 17:44:00,42.9,26.5,30.41,ESE,107,0.0,4.0,52,0.00,,,0.00,VWS V14.01,2013-01-16 01:44:00,
2013-01-15 17:59:00,42.3,26.9,30.41,East,81,0.0,1.0,54,0.00,,,0.00,VWS V14.01,2013-01-16 01:59:00,
2013-01-15 18:14:00,42.0,27.0,30.42,East,80,0.0,1.0,55,0.00,,,0.00,VWS V14.01,2013-01-16 02:14:00,
2013-01-15 18:29:00,40.6,26.6,30.41,East,96,0.0,1.0,57,0.00,,,0.00,VWS V14.01,2013-01-16 02:29:00,
2013-01-15 18:44:00,39.3,26.2,30.42,East,96,0.0,0.0,59,0.00,,,0.00,VWS V14.01,2013-01-16 02:44:00,
2013-01-15 18:59:00,38.9,26.2,30.42,East,96,0.0,0.0,60,0.00,,,0.00,VWS V14.01,2013-01-16 02:59:00,
2013-01-15 19:15:00,37.3,25.9,30.42,ESE,107,0.0,0.0,63,0.00,,,0.00,VWS V14.01,2013-01-16 03:15:00,
2013-01-15 19:30:00,36.9,25.9,30.42,East,83,0.0,1.0,64,0.00,,,0.00,VWS V14.01,2013-01-16 03:30:00,
2013-01-15 19:45:00,36.1,25.9,30.43,East,94,1.0,1.0,66,0.00,,,0.00,VWS V14.01,2013-01-16 03:45:00,
2013-01-15 20:00:00,36.3,25.7,30.43,East,94,0.0,2.0,65,0.00,,,0.00,VWS V14.01,2013-01-16 04:00:00,
2013-01-15 20:15:00,36.8,25.4,30.43,ENE,75,0.0,1.0,63,0.00,,,0.00,VWS V14.01,2013-01-16 04:15:00,
2013-01-15 20:30:00,37.1,25.7,30.43,ENE,71,2.0,4.0,63,0.00,,,0.00,VWS V14.01,2013-01-16 04:30:00,
2013-01-15 20:44:00,35.9,24.9,30.42,ESE,103,0.0,5.0,64,0.00,,,0.00,VWS V14.01,2013-01-16 04:44:00,
2013-01-15 21:00:00,36.5,24.7,30.42,ESE,103,0.0,0.0,62,0.00,,,0.00,VWS V14.01,2013-01-16 05:00:00,
2013-01-15 21:15:00,35.3,24.7,30.42,ESE,103,0.0,0.0,65,0.00,,,0.00,VWS V14.01,2013-01-16 05:15:00,
2013-01-15 21:30:00,35.8,24.8,30.42,ESE,111,0.0,1.0,64,0.00,,,0.00,VWS V14.01,2013-01-16 05:30:00,
2013-01-15 21:45:00,35.9,24.9,30.42,East,98,0.0,1.0,64,0.00,,,0.00,VWS V14.01,2013-01-16 05:45:00,
2013-01-15 22:00:00,35.2,24.6,30.42,SSE,157,0.0,0.0,65,0.00,,,0.00,VWS V14.01,2013-01-16 06:00:00,
2013-01-15 22:15:00,34.4,25.3,30.42,ESE,102,0.0,4.0,69,0.00,,,0.00,VWS V14.01,2013-01-16 06:15:00,
2013-01-15 22:30:00,32.8,24.1,30.42,SE,142,0.0,1.0,70,0.00,,,0.00,VWS V14.01,2013-01-16 06:30:00,
2013-01-15 22:45:00,33.0,24.3,30.42,South,169,0.0,1.0,70,0.00,,,0.00,VWS V14.01,2013-01-16 06:45:00,
2013-01-15 23:00:00,32.3,24.3,30.42,SE,141,0.0,1.0,72,0.00,,,0.00,VWS V14.01,2013-01-16 07:00:00,
2013-01-15 23:15:00,31.8,23.8,30.42,ESE,117,0.0,1.0,72,0.00,,,0.00,VWS V14.01,2013-01-16 07:15:00,
2013-01-15 23:30:00,32.5,24.5,30.42,East,99,0.0,1.0,72,0.00,,,0.00,VWS V14.01,2013-01-16 07:30:00,
2013-01-15 23:45:00,33.1,24.7,30.42,East,96,1.0,2.0,71,0.00,,,0.00,VWS V14.01,2013-01-16 07:45:00,